createdAt,value
2018-10-02T00:00:10.774Z,9.94
2018-10-02T00:02:40.420Z,9.92
2018-10-02T00:05:09.724Z,10.00
2018-10-02T00:07:39.465Z,10.05
2018-10-02T00:10:09.117Z,10.09
2018-10-02T00:12:43.857Z,10.11
2018-10-02T00:15:13.231Z,10.03
2018-10-02T00:17:42.915Z,9.69
2018-10-02T00:20:12.457Z,9.95
2018-10-02T00:22:41.943Z,9.83
2018-10-02T00:25:11.462Z,9.91
2018-10-02T00:27:41.051Z,10.02
2018-10-02T00:30:11.186Z,10.02
2018-10-02T00:32:40.681Z,9.91
2018-10-02T00:35:10.206Z,9.84
2018-10-02T00:37:39.696Z,9.87
2018-10-02T00:40:09.597Z,9.82
2018-10-02T00:42:39.142Z,9.84
2018-10-02T00:45:09.373Z,9.81
2018-10-02T00:47:38.910Z,9.81
2018-10-02T00:50:08.647Z,9.78
2018-10-02T00:52:38.421Z,9.87
2018-10-02T00:55:08.305Z,9.97
2018-10-02T00:57:38.008Z,9.89
2018-10-02T01:00:08.134Z,9.87
2018-10-02T01:02:37.723Z,9.80
2018-10-02T01:05:07.206Z,9.80
2018-10-02T01:07:37.059Z,9.66
2018-10-02T01:10:07.010Z,9.76
2018-10-02T01:12:36.864Z,9.83
2018-10-02T01:15:06.676Z,9.68
2018-10-02T01:17:36.557Z,9.73
2018-10-02T01:20:07.352Z,9.66
2018-10-02T01:22:37.256Z,9.56
2018-10-02T01:25:07.184Z,9.61
2018-10-02T01:27:37.235Z,9.62
2018-10-02T01:30:07.104Z,9.54
2018-10-02T01:32:37.206Z,9.41
2018-10-02T01:35:07.433Z,9.55
2018-10-02T01:37:37.960Z,9.55
2018-10-02T01:40:08.005Z,9.52
2018-10-02T01:42:38.131Z,9.52
2018-10-02T01:45:09.147Z,9.56
2018-10-02T01:47:39.074Z,9.70
2018-10-02T01:50:09.795Z,9.70
2018-10-02T01:52:39.417Z,9.59
2018-10-02T01:55:09.339Z,9.52
2018-10-02T02:00:08.334Z,9.73
2018-10-02T02:02:38.113Z,9.74
2018-10-02T02:05:07.827Z,9.70
2018-10-02T02:07:37.754Z,9.61
2018-10-02T02:10:07.604Z,9.53
2018-10-02T02:12:37.480Z,9.44
2018-10-02T02:15:07.378Z,9.47
2018-10-02T02:17:37.187Z,9.52
2018-10-02T02:20:07.113Z,9.45
2018-10-02T02:22:36.858Z,9.39
2018-10-02T02:25:06.723Z,9.41
2018-10-02T02:27:36.529Z,9.42
2018-10-02T02:30:06.882Z,9.37
2018-10-02T02:32:36.622Z,9.36
2018-10-02T02:35:06.682Z,9.18
2018-10-02T02:37:36.560Z,9.23
2018-10-02T02:40:06.684Z,9.15
2018-10-02T02:42:36.492Z,9.16
2018-10-02T02:45:06.202Z,9.05
2018-10-02T02:47:41.205Z,8.79
2018-10-02T02:50:16.050Z,8.65
2018-10-02T02:52:50.567Z,8.52
2018-10-02T02:55:22.756Z,8.46
2018-10-02T02:57:52.092Z,8.23
2018-10-02T03:00:21.409Z,8.25
2018-10-02T03:02:50.761Z,8.39
2018-10-02T03:05:20.062Z,8.40
2018-10-02T03:07:49.363Z,8.46
2018-10-02T03:10:18.691Z,8.49
2018-10-02T03:12:48.069Z,8.52
2018-10-02T03:15:17.390Z,8.65
2018-10-02T03:17:46.839Z,8.64
2018-10-02T03:20:16.150Z,8.69
2018-10-02T03:22:45.661Z,8.71
2018-10-02T03:25:14.982Z,8.70
2018-10-02T03:27:44.377Z,8.72
2018-10-02T03:30:13.959Z,8.75
2018-10-02T03:32:43.645Z,8.70
2018-10-02T03:35:13.097Z,8.74
2018-10-02T03:37:42.767Z,8.79
2018-10-02T03:40:12.313Z,8.88
2018-10-02T03:42:41.904Z,8.81
2018-10-02T03:45:11.941Z,8.82
2018-10-02T03:47:41.442Z,8.81
2018-10-02T03:50:11.104Z,8.88
2018-10-02T03:52:40.665Z,8.74
2018-10-02T03:55:10.239Z,8.68
2018-10-02T03:57:39.882Z,8.64
2018-10-02T04:00:09.497Z,8.58
2018-10-02T04:02:39.298Z,8.65
2018-10-02T04:05:08.993Z,8.65
2018-10-02T04:07:38.977Z,8.58
2018-10-02T04:10:08.774Z,8.67
2018-10-02T04:12:38.644Z,8.71
2018-10-02T04:15:08.501Z,8.88
2018-10-02T04:17:38.221Z,8.72
2018-10-02T04:20:08.141Z,8.76
2018-10-02T04:22:38.033Z,8.84
2018-10-02T04:25:07.870Z,8.77
2018-10-02T04:27:37.796Z,8.91
2018-10-02T04:30:08.056Z,8.71
2018-10-02T04:32:37.877Z,8.79
2018-10-02T04:35:07.813Z,8.71
2018-10-02T04:37:38.091Z,8.75
2018-10-02T04:40:07.934Z,8.68
2018-10-02T04:42:37.876Z,8.83
2018-10-02T04:45:08.593Z,8.75
2018-10-02T04:47:38.727Z,8.71
2018-10-02T04:50:08.551Z,8.73
2018-10-02T04:52:38.422Z,8.83
2018-10-02T04:55:08.221Z,8.83
2018-10-02T04:57:37.842Z,8.88
2018-10-02T05:00:07.946Z,8.88
2018-10-02T05:02:37.640Z,8.70
2018-10-02T05:05:07.425Z,8.55
2018-10-02T05:07:37.463Z,8.59
2018-10-02T05:10:07.309Z,8.48
2018-10-02T05:12:37.301Z,8.66
2018-10-02T05:15:07.262Z,8.57
2018-10-02T05:17:37.531Z,8.62
2018-10-02T05:20:07.479Z,8.52
2018-10-02T05:22:36.979Z,8.34
2018-10-02T05:25:06.738Z,8.35
2018-10-02T05:27:36.930Z,8.26
2018-10-02T05:30:07.060Z,8.24
2018-10-02T05:32:36.997Z,8.33
2018-10-02T05:35:06.919Z,8.46
2018-10-02T05:37:36.806Z,8.48
2018-10-02T05:40:07.291Z,8.43
2018-10-02T05:42:37.180Z,8.37
2018-10-02T05:45:08.276Z,8.31
2018-10-02T05:47:38.199Z,8.28
2018-10-02T05:50:08.207Z,8.47
2018-10-02T05:52:38.110Z,8.45
2018-10-02T05:55:08.160Z,8.58
2018-10-02T05:57:38.819Z,8.48
2018-10-02T06:00:09.513Z,8.57
2018-10-02T06:02:39.312Z,8.41
2018-10-02T06:05:09.226Z,8.38
2018-10-02T06:07:39.537Z,8.31
2018-10-02T06:10:10.996Z,8.44
2018-10-02T06:12:40.590Z,8.36
2018-10-02T06:15:10.579Z,8.22
2018-10-02T06:17:41.152Z,8.08
2018-10-02T06:20:10.870Z,8.34
2018-10-02T06:22:40.703Z,8.33
2018-10-02T06:25:10.655Z,8.47
2018-10-02T06:27:40.554Z,8.56
2018-10-02T06:30:11.089Z,8.77
2018-10-02T06:32:40.771Z,8.82
2018-10-02T06:35:10.337Z,8.67
2018-10-02T06:37:40.056Z,8.73
2018-10-02T06:40:10.142Z,8.71
2018-10-02T06:42:40.078Z,8.70
2018-10-02T06:45:10.391Z,8.66
2018-10-02T06:47:40.011Z,8.65
2018-10-02T06:50:09.571Z,8.78
2018-10-02T06:52:39.986Z,8.83
2018-10-02T06:55:10.471Z,8.82
2018-10-02T06:57:40.059Z,8.69
2018-10-02T07:00:09.793Z,8.80
2018-10-02T07:02:39.450Z,8.97
2018-10-02T07:05:09.018Z,8.96
2018-10-02T07:07:38.622Z,8.85
2018-10-02T07:10:09.025Z,8.94
2018-10-02T07:12:38.776Z,8.90
2018-10-02T07:15:08.697Z,8.81
2018-10-02T07:17:38.374Z,8.87
2018-10-02T07:20:08.546Z,9.01
2018-10-02T07:22:38.633Z,8.95
2018-10-02T07:25:08.940Z,8.98
2018-10-02T07:27:38.826Z,9.04
2018-10-02T07:30:09.018Z,9.15
2018-10-02T07:32:38.497Z,9.23
2018-10-02T07:35:08.297Z,9.18
2018-10-02T07:37:37.685Z,9.20
2018-10-02T07:40:07.099Z,8.99
2018-10-02T07:42:36.637Z,8.75
2018-10-02T07:45:06.407Z,8.95
2018-10-02T07:47:36.070Z,9.12
2018-10-02T07:50:05.749Z,9.24
2018-10-02T07:52:35.251Z,9.48
2018-10-02T07:55:04.877Z,9.64
2018-10-02T07:57:34.502Z,9.85
2018-10-02T08:00:04.187Z,10.35
2018-10-02T08:02:33.733Z,10.34
2018-10-02T08:05:03.450Z,10.21
2018-10-02T08:07:32.964Z,9.77
2018-10-02T08:10:02.995Z,9.79
2018-10-02T08:12:32.963Z,9.81
2018-10-02T08:15:03.524Z,9.55
2018-10-02T08:17:34.354Z,9.46
2018-10-02T08:20:03.977Z,9.42
2018-10-02T08:22:33.352Z,9.62
2018-10-02T08:25:03.199Z,9.70
2018-10-02T08:27:32.857Z,9.61
2018-10-02T08:30:02.660Z,9.51
2018-10-02T08:32:32.915Z,9.44
2018-10-02T08:35:02.791Z,9.88
2018-10-02T08:37:32.617Z,10.73
2018-10-02T08:40:02.846Z,11.62
2018-10-02T08:42:32.328Z,11.71
2018-10-02T08:45:01.979Z,11.49
2018-10-02T08:47:31.782Z,11.46
2018-10-02T08:50:01.702Z,11.49
2018-10-02T08:52:31.142Z,11.28
2018-10-02T08:55:00.755Z,11.21
2018-10-02T08:57:30.477Z,10.97
2018-10-02T08:59:59.990Z,10.86
2018-10-02T09:02:29.594Z,10.95
2018-10-02T09:04:59.575Z,10.96
2018-10-02T09:07:29.336Z,10.98
2018-10-02T09:09:59.456Z,10.73
2018-10-02T09:12:29.404Z,10.75
2018-10-02T09:14:59.214Z,10.62
2018-10-02T09:17:29.103Z,10.47
2018-10-02T09:19:58.830Z,10.43
2018-10-02T09:22:28.397Z,10.35
2018-10-02T09:24:58.339Z,10.59
2018-10-02T09:27:28.090Z,10.61
2018-10-02T09:30:02.640Z,10.67
2018-10-02T09:32:37.279Z,10.50
2018-10-02T09:35:11.791Z,10.25
2018-10-02T09:37:46.672Z,10.39
2018-10-02T09:40:22.446Z,10.49
2018-10-02T09:42:57.040Z,10.67
2018-10-02T09:45:26.950Z,10.83
2018-10-02T09:47:57.252Z,11.22
2018-10-02T09:50:27.380Z,11.29
2018-10-02T09:52:57.430Z,11.20
2018-10-02T09:55:27.265Z,11.32
2018-10-02T09:57:57.064Z,12.08
2018-10-02T10:00:32.291Z,12.12
2018-10-02T10:03:01.720Z,11.83
2018-10-02T10:05:30.996Z,11.86
2018-10-02T10:08:00.491Z,11.97
2018-10-02T10:10:30.150Z,12.03
2018-10-02T10:12:59.581Z,12.24
2018-10-02T10:15:28.952Z,12.43
2018-10-02T10:17:58.344Z,12.44
2018-10-02T10:20:27.713Z,12.89
2018-10-02T10:22:57.526Z,12.87
2018-10-02T10:25:27.094Z,12.84
2018-10-02T10:27:56.495Z,12.85
2018-10-02T10:30:26.293Z,12.72
2018-10-02T10:32:56.243Z,12.59
2018-10-02T10:35:25.756Z,12.69
2018-10-02T10:37:55.434Z,12.67
2018-10-02T10:40:25.304Z,13.05
2018-10-02T10:42:55.973Z,13.58
2018-10-02T10:45:25.501Z,13.90
2018-10-02T10:47:55.094Z,13.63
2018-10-02T10:50:25.498Z,13.27
2018-10-02T10:52:56.173Z,13.45
2018-10-02T10:55:29.139Z,13.59
2018-10-02T10:57:59.092Z,13.31
2018-10-02T11:00:28.497Z,13.30
2018-10-02T11:02:58.147Z,13.24
2018-10-02T11:05:28.409Z,12.72
2018-10-02T11:07:57.820Z,12.49
2018-10-02T11:10:27.201Z,12.84
2018-10-02T11:12:56.624Z,13.11
2018-10-02T11:15:28.320Z,13.00
2018-10-02T11:17:57.791Z,13.26
2018-10-02T11:20:29.753Z,13.67
2018-10-02T11:22:59.143Z,13.74
2018-10-02T11:25:28.928Z,13.29
2018-10-02T11:27:58.235Z,13.35
2018-10-02T11:30:27.567Z,13.40
2018-10-02T11:32:56.951Z,13.54
2018-10-02T11:35:26.578Z,13.71
2018-10-02T11:37:55.963Z,13.70
2018-10-02T11:40:25.824Z,13.71
2018-10-02T11:42:55.218Z,13.75
2018-10-02T11:45:24.858Z,13.43
2018-10-02T11:47:54.753Z,13.12
2018-10-02T11:50:24.186Z,13.13
2018-10-02T11:52:53.600Z,13.20
2018-10-02T11:55:23.030Z,13.27
2018-10-02T11:57:52.402Z,13.03
2018-10-02T12:00:21.806Z,12.98
2018-10-02T12:02:51.316Z,12.61
2018-10-02T12:05:20.885Z,12.50
2018-10-02T12:07:50.269Z,12.88
2018-10-02T12:10:19.631Z,13.03
2018-10-02T12:12:49.066Z,12.82
2018-10-02T12:15:18.631Z,12.88
2018-10-02T12:17:48.755Z,12.76
2018-10-02T12:20:18.152Z,12.70
2018-10-02T12:22:47.550Z,12.99
2018-10-02T12:25:16.980Z,13.17
2018-10-02T12:27:46.797Z,12.99
2018-10-02T12:30:16.297Z,12.97
2018-10-02T12:32:45.862Z,13.40
2018-10-02T12:35:15.414Z,13.80
2018-10-02T12:37:44.914Z,13.99
2018-10-02T12:40:14.666Z,14.27
2018-10-02T12:42:44.413Z,14.26
2018-10-02T12:45:14.319Z,14.36
2018-10-02T12:47:43.765Z,14.49
2018-10-02T12:50:13.292Z,14.81
2018-10-02T12:52:43.229Z,15.18
2018-10-02T12:55:12.756Z,15.02
2018-10-02T12:57:42.114Z,15.04
2018-10-02T13:00:11.478Z,14.62
2018-10-02T13:02:40.817Z,14.23
2018-10-02T13:05:10.614Z,13.75
2018-10-02T13:07:40.506Z,13.62
2018-10-02T13:10:10.331Z,13.44
2018-10-02T13:12:39.693Z,13.51
2018-10-02T13:15:09.109Z,13.47
2018-10-02T13:17:38.539Z,13.58
2018-10-02T13:20:08.275Z,13.38
2018-10-02T13:22:37.781Z,13.34
2018-10-02T13:25:07.513Z,13.28
2018-10-02T13:27:36.992Z,13.23
2018-10-02T13:30:06.589Z,13.10
2018-10-02T13:32:36.026Z,13.04
2018-10-02T13:35:06.364Z,13.17
2018-10-02T13:37:36.241Z,13.05
2018-10-02T13:40:05.985Z,13.24
2018-10-02T13:42:35.693Z,13.45
2018-10-02T13:45:05.691Z,13.45
2018-10-02T13:47:35.777Z,13.54
2018-10-02T13:50:05.959Z,13.43
2018-10-02T13:52:35.728Z,13.24
2018-10-02T13:55:05.500Z,13.03
2018-10-02T13:57:35.542Z,13.02
2018-10-02T14:00:05.350Z,12.98
2018-10-02T14:02:35.165Z,12.77
2018-10-02T14:05:04.998Z,12.61
2018-10-02T14:07:34.735Z,12.60
2018-10-02T14:10:04.546Z,12.58
2018-10-02T14:12:34.821Z,12.59
2018-10-02T14:15:05.074Z,12.67
2018-10-02T14:17:34.732Z,12.78
2018-10-02T14:20:04.424Z,12.78
2018-10-02T14:22:34.253Z,12.80
2018-10-02T14:25:04.220Z,12.90
2018-10-02T14:27:33.791Z,12.83
2018-10-02T14:30:03.301Z,12.90
2018-10-02T14:32:33.031Z,12.81
2018-10-02T14:35:03.192Z,12.82
2018-10-02T14:37:32.930Z,12.66
2018-10-02T14:40:02.520Z,12.70
2018-10-02T14:42:32.630Z,12.56
2018-10-02T14:45:02.686Z,12.57
2018-10-02T14:47:32.423Z,12.36
2018-10-02T14:50:02.203Z,12.33
2018-10-02T14:52:31.951Z,12.42
2018-10-02T14:55:01.628Z,12.46
2018-10-02T14:57:31.586Z,12.42
2018-10-02T15:00:01.117Z,12.39
2018-10-02T15:02:31.198Z,12.30
2018-10-02T15:05:00.742Z,12.29
2018-10-02T15:07:30.237Z,12.34
2018-10-02T15:09:59.751Z,12.55
2018-10-02T15:12:29.242Z,12.56
2018-10-02T15:14:58.741Z,12.54
2018-10-02T15:17:28.198Z,12.52
2018-10-02T15:19:57.598Z,12.39
2018-10-02T15:22:27.024Z,12.56
2018-10-02T15:24:56.730Z,12.43
2018-10-02T15:27:26.311Z,12.46
2018-10-02T15:29:55.825Z,12.56
2018-10-02T15:32:25.263Z,12.44
2018-10-02T15:34:54.608Z,12.38
2018-10-02T15:37:24.664Z,12.44
2018-10-02T15:39:56.308Z,12.33
2018-10-02T15:42:26.293Z,12.39
2018-10-02T15:44:56.722Z,12.42
2018-10-02T15:47:26.360Z,12.38
2018-10-02T15:49:56.041Z,12.42
2018-10-02T15:52:25.842Z,12.48
2018-10-02T15:54:55.223Z,12.45
2018-10-02T15:57:25.054Z,12.48
2018-10-02T15:59:54.423Z,12.36
2018-10-02T16:02:23.804Z,12.35
2018-10-02T16:04:53.212Z,12.29
2018-10-02T16:07:22.637Z,12.22
2018-10-02T16:09:52.369Z,12.22
2018-10-02T16:12:22.363Z,12.27
2018-10-02T16:14:52.561Z,12.30
2018-10-02T16:17:22.310Z,12.18
2018-10-02T16:19:51.784Z,12.13
2018-10-02T16:22:21.172Z,12.12
2018-10-02T16:24:50.689Z,12.15
2018-10-02T16:27:20.043Z,12.12
2018-10-02T16:29:49.403Z,12.06
2018-10-02T16:32:18.824Z,12.15
2018-10-02T16:34:49.289Z,12.09
2018-10-02T16:37:17.491Z,12.14
2018-10-02T16:39:47.029Z,12.27
2018-10-02T16:42:16.441Z,12.42
2018-10-02T16:44:45.803Z,12.41
2018-10-02T16:47:15.264Z,12.21
2018-10-02T16:49:44.609Z,12.19
2018-10-02T16:52:13.924Z,12.14
2018-10-02T16:54:43.318Z,11.99
2018-10-02T16:57:12.655Z,11.96
2018-10-02T16:59:45.915Z,11.89
2018-10-02T17:02:15.312Z,11.81
2018-10-02T17:04:44.901Z,11.85
2018-10-02T17:07:14.349Z,11.89
2018-10-02T17:09:43.756Z,11.87
2018-10-02T17:12:13.058Z,11.94
2018-10-02T17:14:42.446Z,11.92
2018-10-02T17:17:11.764Z,11.94
2018-10-02T17:19:41.342Z,11.92
2018-10-02T17:22:11.008Z,11.95
2018-10-02T17:24:40.484Z,11.88
2018-10-02T17:27:09.855Z,11.89
2018-10-02T17:29:39.226Z,11.87
2018-10-02T17:32:09.012Z,11.81
2018-10-02T17:34:38.528Z,11.81
2018-10-02T17:37:09.738Z,11.88
2018-10-02T17:39:39.237Z,11.91
2018-10-02T17:42:08.633Z,11.88
2018-10-02T17:44:38.519Z,11.95
2018-10-02T17:47:08.509Z,11.93
2018-10-02T17:49:38.037Z,11.84
2018-10-02T17:52:07.997Z,11.91
2018-10-02T17:54:37.485Z,11.95
2018-10-02T17:57:07.475Z,11.95
2018-10-02T17:59:37.024Z,11.90
2018-10-02T18:02:06.874Z,11.94
2018-10-02T18:04:36.397Z,11.89
2018-10-02T18:07:05.940Z,11.83
2018-10-02T18:09:35.394Z,11.82
2018-10-02T18:12:04.805Z,11.82
2018-10-02T18:14:34.323Z,11.77
2018-10-02T18:17:04.134Z,11.76
2018-10-02T18:19:33.599Z,11.78
2018-10-02T18:22:03.157Z,11.74
2018-10-02T18:24:32.657Z,11.70
2018-10-02T18:27:02.285Z,11.71
2018-10-02T18:29:31.807Z,11.77
2018-10-02T18:32:01.275Z,11.79
2018-10-02T18:34:30.803Z,11.72
2018-10-02T18:37:00.604Z,11.76
2018-10-02T18:39:30.708Z,11.72
2018-10-02T18:42:01.936Z,11.76
2018-10-02T18:44:32.639Z,11.76
2018-10-02T18:47:04.430Z,11.80
2018-10-02T18:49:34.307Z,11.79
2018-10-02T18:52:04.264Z,11.85
2018-10-02T18:54:34.211Z,11.76
2018-10-02T18:57:03.699Z,11.72
2018-10-02T18:59:33.296Z,11.66
2018-10-02T19:02:02.690Z,11.73
2018-10-02T19:04:32.153Z,11.68
2018-10-02T19:07:01.639Z,11.66
2018-10-02T19:09:31.100Z,11.61
2018-10-02T19:12:05.909Z,11.64
2018-10-02T19:14:35.433Z,11.57
2018-10-02T19:17:05.127Z,11.44
2018-10-02T19:19:40.031Z,11.46
2018-10-02T19:22:09.778Z,11.43
2018-10-02T19:24:39.440Z,11.42
2018-10-02T19:27:09.141Z,11.52
2018-10-02T19:29:39.919Z,11.58
2018-10-02T19:32:12.693Z,11.51
2018-10-02T19:34:42.223Z,11.47
2018-10-02T19:37:16.905Z,11.46
2018-10-02T19:39:46.418Z,11.41
2018-10-02T19:42:16.318Z,11.36
2018-10-02T19:44:46.107Z,11.37
2018-10-02T19:47:15.916Z,11.35
2018-10-02T19:49:45.769Z,11.31
2018-10-02T19:52:16.404Z,11.31
2018-10-02T19:54:46.807Z,11.35
2018-10-02T19:57:18.147Z,11.35
2018-10-02T19:59:47.495Z,11.33
2018-10-02T20:02:16.913Z,11.32
2018-10-02T20:04:46.314Z,11.29
2018-10-02T20:07:15.737Z,11.31
2018-10-02T20:09:45.201Z,11.15
2018-10-02T20:12:15.236Z,11.12
2018-10-02T20:14:44.713Z,11.16
2018-10-02T20:17:14.344Z,11.20
2018-10-02T20:19:43.789Z,11.27
2018-10-02T20:22:13.186Z,11.15
2018-10-02T20:24:44.093Z,11.09
2018-10-02T20:27:13.680Z,11.18
2018-10-02T20:29:43.205Z,11.13
2018-10-02T20:32:12.674Z,11.14
2018-10-02T20:34:42.099Z,11.18
2018-10-02T20:37:11.481Z,11.13
2018-10-02T20:39:40.849Z,11.13
2018-10-02T20:42:10.252Z,11.06
2018-10-02T20:44:39.638Z,11.07
2018-10-02T20:47:09.102Z,11.06
2018-10-02T20:49:38.579Z,11.10
2018-10-02T20:52:07.984Z,11.11
2018-10-02T20:54:37.431Z,11.11
2018-10-02T20:57:07.876Z,11.10
2018-10-02T20:59:37.323Z,11.07
2018-10-02T21:02:06.668Z,11.06
2018-10-02T21:04:35.969Z,11.06
2018-10-02T21:07:05.377Z,11.08
2018-10-02T21:09:34.740Z,11.05
2018-10-02T21:12:04.032Z,11.06
2018-10-02T21:14:33.393Z,11.13
2018-10-02T21:17:02.785Z,11.04
2018-10-02T21:19:32.144Z,11.14
2018-10-02T21:22:01.601Z,11.04
2018-10-02T21:24:31.062Z,11.02
2018-10-02T21:27:00.500Z,11.02
2018-10-02T21:29:30.574Z,11.05
2018-10-02T21:31:59.907Z,11.04
2018-10-02T21:34:29.810Z,11.14
2018-10-02T21:36:59.938Z,11.08
2018-10-02T21:39:29.537Z,11.13
2018-10-02T21:41:59.452Z,11.14
2018-10-02T21:44:29.321Z,11.05
2018-10-02T21:46:59.008Z,11.10
2018-10-02T21:49:28.618Z,11.07
2018-10-02T21:51:58.396Z,10.99
2018-10-02T21:54:28.033Z,10.95
2018-10-02T21:56:57.950Z,11.00
2018-10-02T21:59:27.469Z,10.95
2018-10-02T22:01:57.059Z,10.99
2018-10-02T22:04:26.783Z,11.04
2018-10-02T22:06:56.868Z,10.99
2018-10-02T22:09:26.512Z,10.88
2018-10-02T22:11:56.110Z,10.92
2018-10-02T22:14:25.893Z,10.91
2018-10-02T22:16:55.588Z,10.93
2018-10-02T22:19:25.311Z,10.90
2018-10-02T22:21:55.024Z,10.96
2018-10-02T22:24:24.570Z,10.82
2018-10-02T22:26:54.553Z,10.71
2018-10-02T22:29:24.285Z,10.72
2018-10-02T22:31:53.930Z,10.68
2018-10-02T22:34:24.499Z,10.81
2018-10-02T22:36:53.999Z,10.79
2018-10-02T22:39:23.659Z,10.88
2018-10-02T22:41:53.517Z,10.82
2018-10-02T22:44:23.192Z,10.86
2018-10-02T22:46:52.951Z,10.87
2018-10-02T22:49:22.833Z,10.83
2018-10-02T22:51:52.472Z,10.91
2018-10-02T22:54:22.102Z,10.84
2018-10-02T22:56:51.704Z,10.80
2018-10-02T22:59:21.740Z,10.76
2018-10-02T23:01:51.477Z,10.76
2018-10-02T23:04:20.943Z,10.82
2018-10-02T23:06:50.479Z,10.83
2018-10-02T23:09:19.837Z,10.76
2018-10-02T23:11:49.225Z,10.71
2018-10-02T23:14:18.598Z,10.77
2018-10-02T23:16:47.913Z,10.78
2018-10-02T23:19:17.234Z,10.83
2018-10-02T23:21:46.614Z,10.79
2018-10-02T23:24:15.932Z,10.80
2018-10-02T23:26:45.358Z,10.77
2018-10-02T23:29:14.713Z,10.83
2018-10-02T23:31:44.021Z,10.96
2018-10-02T23:34:13.344Z,10.87
2018-10-02T23:36:42.786Z,10.88
2018-10-02T23:39:12.098Z,10.88
2018-10-02T23:41:41.496Z,10.96
2018-10-02T23:44:10.821Z,10.91
2018-10-02T23:46:40.133Z,10.90
2018-10-02T23:49:09.483Z,10.96
2018-10-02T23:51:38.854Z,10.99
2018-10-02T23:54:08.410Z,10.99
2018-10-02T23:56:37.803Z,10.86
2018-10-02T23:59:07.375Z,10.97
